Time;durP1;ratioP1;P1;durP2;ratioP2;P2;SDS_P1;SDS_P2;PMS_P1;PMS_P2;Temp;Humidity;BMP_temperature;BMP_pressure;BME280_temperature;BME280_humidity;BME280_pressure;Samples;Min_cycle;Max_cycle;Signal;HPM_P1;HPM_P2
2023/03/24 05:32:51;;;;;;;15.63;2.88;;;11.20;83.50;;;;;;4932690;29;20541;-84
2023/03/24 05:35:17;;;;;;;17.00;2.92;;;11.30;83.80;;;;;;4936516;29;20063;-85
2023/03/24 05:37:43;;;;;;;11.23;2.50;;;11.30;83.50;;;;;;4937700;29;20020;-83
2023/03/24 05:40:11;;;;;;;15.38;2.67;;;11.40;83.40;;;;;;4937021;29;20151;-83
2023/03/24 05:42:36;;;;;;;17.17;3.15;;;11.40;83.20;;;;;;4937089;29;20499;-81
2023/03/24 05:45:03;;;;;;;10.02;2.28;;;11.40;83.00;;;;;;4937666;29;20031;-81
2023/03/24 05:47:28;;;;;;;9.85;2.65;;;11.40;83.00;;;;;;4935861;29;20026;-83
2023/03/24 05:49:54;;;;;;;14.68;2.40;;;11.40;82.90;;;;;;4938089;29;20023;-82
2023/03/24 05:52:21;;;;;;;18.52;2.60;;;11.50;82.80;;;;;;4918040;29;20032;-80
2023/03/24 05:54:50;;;;;;;17.73;2.40;;;11.50;82.80;;;;;;4920767;29;20158;-87
2023/03/24 05:57:17;;;;;;;15.55;2.92;;;11.50;82.60;;;;;;4920766;29;20028;-85
2023/03/24 05:59:43;;;;;;;11.05;2.45;;;11.50;82.50;;;;;;4935927;29;20046;-84
2023/03/24 06:02:09;;;;;;;17.45;2.78;;;11.40;82.40;;;;;;4933041;29;20031;-83
2023/03/24 06:04:35;;;;;;;17.98;2.92;;;11.40;82.50;;;;;;4936797;29;20020;-82
2023/03/24 06:07:01;;;;;;;14.15;2.35;;;11.50;82.40;;;;;;4936719;29;20134;-82
2023/03/24 06:09:31;;;;;;;10.20;2.28;;;11.50;82.30;;;;;;4921017;29;20039;-83
2023/03/24 06:11:58;;;;;;;12.48;2.05;;;11.50;82.20;;;;;;4936192;29;20439;-82
2023/03/24 06:14:24;;;;;;;13.95;2.33;;;11.50;82.00;;;;;;4940315;29;20039;-84
2023/03/24 06:16:51;;;;;;;9.15;2.08;;;11.50;82.20;;;;;;4940962;29;20034;-87
2023/03/24 06:19:17;;;;;;;15.10;2.70;;;11.60;82.20;;;;;;4939279;29;20055;-80
2023/03/24 06:21:43;;;;;;;13.13;3.10;;;11.60;82.00;;;;;;4941631;29;20062;-84
2023/03/24 06:24:13;;;;;;;18.42;3.25;;;11.60;82.00;;;;;;4940227;29;20024;-85
2023/03/24 06:26:40;;;;;;;15.23;2.40;;;11.70;82.00;;;;;;4941255;29;20087;-84
2023/03/24 06:29:06;;;;;;;12.73;2.47;;;11.70;81.90;;;;;;4938313;29;20095;-85
2023/03/24 06:31:33;;;;;;;19.65;2.97;;;11.80;81.90;;;;;;4927960;29;20116;-84
2023/03/24 06:33:59;;;;;;;15.18;2.90;;;11.70;81.90;;;;;;4907027;29;20047;-85
2023/03/24 06:36:25;;;;;;;13.80;3.15;;;11.80;81.80;;;;;;4920493;29;20024;-85
2023/03/24 06:38:50;;;;;;;9.60;2.60;;;11.80;81.60;;;;;;4920441;29;20032;-85
2023/03/24 06:41:16;;;;;;;18.92;2.85;;;11.80;81.40;;;;;;4920639;29;20028;-88
2023/03/24 06:43:41;;;;;;;18.63;2.70;;;11.90;81.50;;;;;;4921117;29;20495;-88
2023/03/24 06:46:08;;;;;;;10.30;2.10;;;11.90;81.20;;;;;;4920608;29;20035;-86
2023/03/24 06:48:34;;;;;;;22.27;3.65;;;12.00;81.10;;;;;;4931596;29;20032;-86
2023/03/24 06:51:00;;;;;;;15.98;3.30;;;12.00;80.90;;;;;;4921335;29;20028;-84
2023/03/24 06:53:26;;;;;;;17.88;3.15;;;12.20;80.80;;;;;;4919834;29;20114;-84
2023/03/24 06:55:52;;;;;;;16.00;2.53;;;12.20;80.60;;;;;;4920654;29;20032;-85
2023/03/24 06:58:18;;;;;;;12.45;2.33;;;12.20;80.70;;;;;;4921828;29;20040;-86
2023/03/24 07:00:45;;;;;;;13.68;2.38;;;12.20;80.60;;;;;;4921545;29;20118;-87
2023/03/24 07:03:12;;;;;;;8.57;3.08;;;12.40;80.40;;;;;;4922110;29;20028;-86
2023/03/24 07:05:43;;;;;;;14.07;2.58;;;12.90;79.40;;;;;;4920736;29;20028;-87
2023/03/24 07:08:10;;;;;;;14.55;2.63;;;13.70;77.40;;;;;;4921726;29;20020;-87
2023/03/24 07:10:38;;;;;;;12.93;2.88;;;14.50;74.90;;;;;;4927300;29;20066;-87
2023/03/24 07:13:05;;;;;;;14.40;2.67;;;14.90;73.10;;;;;;4920856;29;20020;-87
2023/03/24 07:15:31;;;;;;;13.98;2.17;;;14.80;72.70;;;;;;4922182;29;20028;-87
2023/03/24 07:17:57;;;;;;;9.35;2.63;;;14.40;73.90;;;;;;4921007;29;20036;-86
2023/03/24 07:20:22;;;;;;;14.88;2.75;;;14.00;75.20;;;;;;4905731;29;20107;-87
2023/03/24 07:22:48;;;;;;;7.20;1.80;;;13.60;76.30;;;;;;4920912;29;20107;-88
2023/03/24 07:25:18;;;;;;;9.07;2.28;;;13.70;76.80;;;;;;4921432;29;20103;-88
2023/03/24 07:27:44;;;;;;;;;;;13.60;77.00;;;;;;4922491;29;20103;-88
2023/03/24 07:30:10;;;;;;;17.50;2.72;;;13.30;77.60;;;;;;4921876;29;19907;-87
2023/03/24 07:32:38;;;;;;;24.98;3.47;;;13.60;77.20;;;;;;4943201;29;20453;-87
2023/03/24 07:35:09;;;;;;;17.33;2.72;;;14.10;76.50;;;;;;4939875;29;20038;-87
2023/03/24 07:37:37;;;;;;;19.17;2.72;;;14.50;75.30;;;;;;4939948;29;20087;-87
2023/03/24 07:40:10;;;;;;;13.00;3.17;;;14.50;75.00;;;;;;4940526;29;20031;-87
2023/03/24 07:42:40;;;;;;;12.38;2.38;;;14.60;74.90;;;;;;4940004;29;20180;-87
2023/03/24 07:45:08;;;;;;;18.88;2.53;;;14.80;73.90;;;;;;4939635;29;20012;-88
2023/03/24 07:47:34;;;;;;;17.00;3.75;;;14.70;73.30;;;;;;4940538;29;20055;-87
2023/03/24 07:50:02;;;;;;;7.35;2.53;;;14.70;73.50;;;;;;4939503;29;20037;-88
2023/03/24 07:52:29;;;;;;;20.80;3.47;;;15.50;72.40;;;;;;4941029;29;20031;-88
2023/03/24 07:54:55;;;;;;;17.30;3.25;;;17.00;67.50;;;;;;4941075;29;20091;-87
2023/03/24 07:57:21;;;;;;;18.33;2.85;;;17.30;66.20;;;;;;4941283;29;20395;-87
2023/03/24 07:59:47;;;;;;;18.88;3.55;;;16.90;66.20;;;;;;4940419;29;20165;-88
2023/03/24 08:02:17;;;;;;;11.38;2.50;;;18.30;63.40;;;;;;4942333;29;20023;-89
2023/03/24 08:04:43;;;;;;;;;;;17.80;63.60;;;;;;4951889;29;20514;-89
2023/03/24 08:07:11;;;;;;;9.32;2.70;;;18.40;61.60;;;;;;4940498;29;19911;-89
2023/03/24 08:09:36;;;;;;;13.48;2.35;;;18.00;61.30;;;;;;4940803;29;20032;-88
2023/03/24 08:12:02;;;;;;;11.80;2.03;;;18.20;60.70;;;;;;4941082;29;20505;-89
2023/03/24 08:14:28;;;;;;;10.80;2.70;;;18.50;60.20;;;;;;4940777;29;20399;-89
2023/03/24 08:16:54;;;;;;;13.43;2.03;;;19.20;58.50;;;;;;4939214;29;20410;-90
2023/03/24 08:19:19;;;;;;;14.68;2.38;;;19.20;57.10;;;;;;4971739;28;20036;-90
2023/03/24 08:21:45;;;;;;;15.10;2.83;;;19.60;56.20;;;;;;4940794;29;20036;-89
2023/03/24 08:24:10;;;;;;;18.42;3.13;;;18.60;59.10;;;;;;4939596;29;20542;-87
2023/03/24 08:26:36;;;;;;;11.38;2.45;;;17.90;59.70;;;;;;4940798;29;20394;-89
2023/03/24 08:29:02;;;;;;;13.95;2.50;;;17.50;62.30;;;;;;4954979;29;20024;-89
2023/03/24 08:31:32;;;;;;;10.40;1.90;;;17.50;62.40;;;;;;4940434;29;20058;-87
2023/03/24 08:33:58;;;;;;;;;;;17.20;62.70;;;;;;4940828;29;20056;-89
2023/03/24 08:36:25;;;;;;;9.90;2.30;;;17.60;62.10;;;;;;4938682;29;19907;-89
2023/03/24 08:38:53;;;;;;;9.85;1.75;;;19.10;58.70;;;;;;4971495;28;20095;-90
2023/03/24 08:41:19;;;;;;;15.57;2.60;;;19.90;55.70;;;;;;4955492;29;20491;-88
2023/03/24 08:43:45;;;;;;;9.68;1.95;;;20.30;53.90;;;;;;4971107;28;20566;-89
2023/03/24 08:46:11;;;;;;;8.00;1.95;;;20.30;52.80;;;;;;4940332;29;20075;-89
2023/03/24 08:48:39;;;;;;;13.13;3.00;;;19.70;53.80;;;;;;4940106;29;20510;-89
2023/03/24 08:51:13;;;;;;;11.52;4.53;;;19.30;55.90;;;;;;4940442;29;20028;-91
2023/03/24 08:53:39;;;;;;;12.00;1.85;;;19.60;55.20;;;;;;4921476;29;20068;-88
2023/03/24 08:56:05;;;;;;;12.63;2.50;;;19.30;54.40;;;;;;4951707;29;20035;-90
2023/03/24 08:58:31;;;;;;;13.63;2.08;;;19.10;56.30;;;;;;4921334;29;20054;-89
2023/03/24 09:00:57;;;;;;;8.98;1.90;;;19.30;55.50;;;;;;4951187;29;20079;-88
2023/03/24 09:03:22;;;;;;;10.18;2.00;;;19.10;56.20;;;;;;4945371;29;20099;-88
2023/03/24 09:05:49;;;;;;;6.78;1.60;;;18.60;57.50;;;;;;4942978;29;20031;-88
2023/03/24 09:08:17;;;;;;;13.85;2.33;;;18.60;57.80;;;;;;4939229;29;20122;-88
2023/03/24 09:10:47;;;;;;;14.80;2.42;;;18.20;59.00;;;;;;4939366;29;20562;-88
2023/03/24 09:13:13;;;;;;;13.68;2.35;;;18.60;58.30;;;;;;4940047;29;20035;-88
2023/03/24 09:15:39;;;;;;;10.95;2.22;;;18.10;59.00;;;;;;4939886;29;20451;-89
2023/03/24 09:18:05;;;;;;;11.73;2.67;;;17.40;59.80;;;;;;4939628;29;20032;-90
2023/03/24 09:20:31;;;;;;;13.60;2.83;;;17.30;61.10;;;;;;4939994;29;20035;-87
2023/03/24 09:22:56;;;;;;;12.57;3.42;;;18.60;59.00;;;;;;4939685;29;20027;-90
2023/03/24 09:25:22;;;;;;;11.40;1.95;;;19.20;57.30;;;;;;4940049;29;20107;-89
2023/03/24 09:27:49;;;;;;;12.07;2.15;;;19.90;54.60;;;;;;4939854;29;20027;-89
2023/03/24 09:30:16;;;;;;;14.15;3.08;;;19.20;54.90;;;;;;4954362;29;20396;-89
2023/03/24 09:32:43;;;;;;;9.55;2.60;;;19.70;55.10;;;;;;4946440;29;20027;-91
2023/03/24 09:35:09;;;;;;;7.78;1.52;;;21.20;52.00;;;;;;4956863;28;20031;-90
2023/03/24 09:37:36;;;;;;;8.23;1.92;;;21.70;48.60;;;;;;4939835;29;20517;-91
2023/03/24 09:40:02;;;;;;;10.88;1.90;;;22.10;48.80;;;;;;4940089;29;20039;-89
2023/03/24 09:42:33;;;;;;;8.05;1.92;;;22.80;46.60;;;;;;4940312;29;20452;-91
2023/03/24 09:45:07;;;;;;;8.52;2.20;;;23.60;46.50;;;;;;4938721;29;20529;-91
2023/03/24 09:47:58;;;;;;;10.85;1.70;;;22.80;45.80;;;;;;4939329;29;20036;-89
2023/03/24 09:50:47;;;;;;;10.70;2.10;;;21.80;47.70;;;;;;4938484;29;20035;-90
2023/03/24 09:53:39;;;;;;;7.95;1.85;;;22.10;48.40;;;;;;4940142;29;20368;-91
2023/03/24 09:56:16;;;;;;;8.35;2.20;;;22.40;46.50;;;;;;4911923;29;20032;-91
2023/03/24 09:58:45;;;;;;;9.95;1.73;;;22.40;47.70;;;;;;4920686;29;20047;-90
2023/03/24 10:01:15;;;;;;;7.25;2.47;;;21.90;47.30;;;;;;4939832;29;20035;-91
2023/03/24 10:03:42;;;;;;;9.20;2.03;;;22.40;47.60;;;;;;4954494;29;20027;-89
2023/03/24 10:06:22;;;;;;;11.10;2.88;;;22.10;47.60;;;;;;4940083;29;20091;-89
2023/03/24 10:09:06;;;;;;;10.18;1.95;;;21.30;47.70;;;;;;4939940;29;20074;-88
2023/03/24 10:11:59;;;;;;;11.35;2.30;;;20.60;48.60;;;;;;4954416;29;20039;-88
2023/03/24 10:14:31;;;;;;;8.13;1.75;;;20.30;49.60;;;;;;4935959;29;20032;-89
2023/03/24 10:17:08;;;;;;;10.35;1.73;;;20.20;50.40;;;;;;4954131;29;20038;-90
2023/03/24 10:19:42;;;;;;;10.18;1.98;;;20.10;50.70;;;;;;4938504;29;20491;-89
2023/03/24 10:22:12;;;;;;;7.00;1.48;;;19.50;52.10;;;;;;4939535;29;20031;-89
2023/03/24 10:24:43;;;;;;;;;;;18.80;53.30;;;;;;4939413;29;20027;-87
2023/03/24 10:27:29;;;;;;;11.30;1.70;;;18.30;54.60;;;;;;4939408;29;19906;-92
2023/03/24 10:30:03;;;;;;;12.65;1.77;;;18.30;56.20;;;;;;4939252;29;20024;-88
2023/03/24 10:32:33;;;;;;;12.00;1.88;;;18.10;56.90;;;;;;4939549;29;20063;-88
2023/03/24 10:35:08;;;;;;;11.68;2.38;;;18.30;57.00;;;;;;4939169;29;20035;-91
2023/03/24 10:37:34;;;;;;;9.77;1.98;;;18.20;56.30;;;;;;4939567;29;20118;-88
2023/03/24 10:40:00;;;;;;;8.15;1.65;;;18.10;55.60;;;;;;4939313;29;20126;-88
2023/03/24 10:42:31;;;;;;;9.82;2.08;;;18.20;55.70;;;;;;4939404;29;20513;-88
2023/03/24 10:44:57;;;;;;;14.10;2.25;;;17.80;56.90;;;;;;4970018;28;20035;-88
2023/03/24 10:47:29;;;;;;;7.25;2.50;;;17.50;59.50;;;;;;4969890;28;20495;-88
2023/03/24 10:50:00;;;;;;;8.20;1.23;;;17.20;61.10;;;;;;4935768;29;20026;-88
2023/03/24 10:52:27;;;;;;;10.05;1.77;;;16.90;61.60;;;;;;4938552;29;20039;-90
2023/03/24 10:55:02;;;;;;;11.23;1.35;;;16.50;62.50;;;;;;4938947;29;20071;-87
2023/03/24 10:57:29;;;;;;;5.30;1.15;;;16.40;63.30;;;;;;4938919;29;20463;-88
2023/03/24 11:00:00;;;;;;;4.78;0.90;;;16.30;62.30;;;;;;4940271;29;20027;-88
2023/03/24 11:02:30;;;;;;;6.82;1.67;;;15.90;62.50;;;;;;4942146;29;20467;-89
2023/03/24 11:05:21;;;;;;;9.85;1.33;;;15.70;63.10;;;;;;4941889;29;20792;-90
2023/03/24 11:07:49;;;;;;;6.60;1.20;;;15.70;64.30;;;;;;4957096;29;20035;-88
2023/03/24 11:10:24;;;;;;;14.30;1.95;;;15.90;65.20;;;;;;4942544;29;20027;-90
2023/03/24 11:12:52;;;;;;;5.65;1.00;;;16.00;65.00;;;;;;4942064;29;20106;-89
2023/03/24 11:15:27;;;;;;;5.68;1.13;;;16.10;65.00;;;;;;4942631;29;20031;-90
2023/03/24 11:18:02;;;;;;;9.13;2.55;;;16.30;65.00;;;;;;4941282;29;20035;-91
2023/03/24 11:21:16;;;;;;;3.63;1.30;;;16.40;64.90;;;;;;4941402;29;20032;-89
2023/03/24 11:23:44;;;;;;;5.05;1.48;;;16.50;66.00;;;;;;4883926;29;20610;-90
2023/03/24 11:26:18;;;;;;;5.88;1.05;;;16.70;65.30;;;;;;4883867;29;20089;-90
2023/03/24 11:28:47;;;;;;;7.28;1.55;;;16.70;64.00;;;;;;4899242;29;20043;-90
2023/03/24 11:31:29;;;;;;;9.13;1.90;;;16.80;63.90;;;;;;4941269;29;20043;-88
2023/03/24 11:34:12;;;;;;;7.20;1.60;;;16.90;63.60;;;;;;4926604;29;20476;-91
2023/03/24 11:36:55;;;;;;;8.95;1.50;;;17.20;63.50;;;;;;4922039;29;20175;-84
2023/03/24 11:39:28;;;;;;;5.88;1.55;;;17.50;63.80;;;;;;4924714;29;20040;-81
2023/03/24 11:42:13;;;;;;;10.65;2.30;;;17.80;63.40;;;;;;4921947;29;20024;-84
2023/03/24 11:44:48;;;;;;;12.57;2.33;;;17.90;63.30;;;;;;4922519;29;20028;-86
2023/03/24 11:47:37;;;;;;;10.38;2.08;;;18.00;60.50;;;;;;4897996;29;20500;-82
2023/03/24 11:50:09;;;;;;;11.00;2.00;;;18.00;60.50;;;;;;4909756;29;20035;-83
2023/03/24 11:52:49;;;;;;;6.85;1.60;;;17.90;60.30;;;;;;4920340;29;20025;-82
2023/03/24 11:55:41;;;;;;;6.93;1.67;;;17.80;60.10;;;;;;4921195;29;20115;-86
2023/03/24 11:58:09;;;;;;;8.13;1.80;;;17.80;60.30;;;;;;4919656;29;20036;-83
2023/03/24 12:00:45;;;;;;;6.55;1.17;;;17.60;59.50;;;;;;4934062;29;20055;-82
2023/03/24 12:03:37;;;;;;;14.18;2.10;;;17.50;59.70;;;;;;4915777;29;20028;-82
2023/03/24 12:06:34;;;;;;;9.02;1.80;;;17.40;60.60;;;;;;4916680;29;20033;-82
2023/03/24 12:09:19;;;;;;;13.10;1.92;;;17.00;62.70;;;;;;4914103;29;20036;-80
2023/03/24 12:12:06;;;;;;;9.98;1.63;;;16.60;68.20;;;;;;4912184;29;20020;-79
2023/03/24 12:14:52;;;;;;;8.18;1.75;;;16.10;67.60;;;;;;4912332;29;20120;-79
2023/03/24 12:17:33;;;;;;;9.57;1.23;;;15.80;69.80;;;;;;4917323;29;20035;-77
2023/03/24 12:20:14;;;;;;;8.15;1.60;;;15.40;69.70;;;;;;4915101;29;20131;-79
2023/03/24 12:22:58;;;;;;;13.27;1.52;;;15.20;70.00;;;;;;4919745;29;20028;-78
2023/03/24 12:25:51;;;;;;;9.38;1.60;;;15.30;70.60;;;;;;4918098;29;20076;-79
2023/03/24 12:28:26;;;;;;;8.73;1.80;;;15.30;71.10;;;;;;4888637;29;20051;-78
2023/03/24 12:31:16;;;;;;;9.65;1.90;;;15.40;71.80;;;;;;4923708;29;20051;-78
2023/03/24 12:33:43;;;;;;;12.63;1.80;;;15.40;72.20;;;;;;4937218;29;20156;-78
2023/03/24 12:36:42;;;;;;;7.97;1.50;;;15.40;72.30;;;;;;4938974;29;20116;-78
2023/03/24 12:39:12;;;;;;;5.28;0.80;;;15.30;71.90;;;;;;4935741;29;20067;-77
2023/03/24 12:41:47;;;;;;;9.32;1.65;;;15.20;71.00;;;;;;4937762;29;20019;-78
2023/03/24 12:44:19;;;;;;;7.25;1.55;;;15.10;71.40;;;;;;4938597;29;20111;-78
2023/03/24 12:46:53;;;;;;;10.07;1.65;;;15.30;71.60;;;;;;4937509;29;20034;-78
2023/03/24 12:49:19;;;;;;;5.93;1.10;;;15.80;72.90;;;;;;4950061;29;20475;-78
2023/03/24 12:52:20;;;;;;;6.57;1.42;;;15.80;71.40;;;;;;4938056;29;20098;-79
2023/03/24 12:55:03;;;;;;;7.28;1.40;;;15.90;70.10;;;;;;4931419;29;20047;-79
2023/03/24 12:57:35;;;;;;;4.35;0.80;;;15.90;71.20;;;;;;4932194;29;20031;-79
2023/03/24 13:00:25;;;;;;;9.52;1.38;;;15.80;70.60;;;;;;4937501;29;20070;-79
2023/03/24 13:03:03;;;;;;;10.82;2.00;;;15.90;70.80;;;;;;4946688;28;20039;-83
2023/03/24 13:05:35;;;;;;;13.88;1.98;;;16.10;70.40;;;;;;4936244;29;20032;-80
2023/03/24 13:08:15;;;;;;;11.23;1.75;;;16.10;70.10;;;;;;4953381;28;20387;-80
2023/03/24 13:10:42;;;;;;;9.43;1.50;;;16.20;70.80;;;;;;4934564;29;20044;-81
2023/03/24 13:13:18;;;;;;;6.28;1.30;;;16.30;68.30;;;;;;4937847;29;20070;-82
2023/03/24 13:15:55;;;;;;;8.98;1.85;;;16.30;68.30;;;;;;4936785;29;20031;-82
2023/03/24 13:18:31;;;;;;;4.90;1.80;;;16.40;68.10;;;;;;4935896;29;20502;-85
2023/03/24 13:21:10;;;;;;;11.13;2.10;;;16.40;68.20;;;;;;4930527;29;20051;-82
2023/03/24 13:23:35;;;;;;;11.98;1.67;;;16.40;68.40;;;;;;4936897;28;20032;-81
2023/03/24 13:26:16;;;;;;;8.10;1.50;;;16.40;67.60;;;;;;4937850;29;20027;-82
2023/03/24 13:29:00;;;;;;;10.70;1.45;;;16.50;67.30;;;;;;4937363;29;20027;-81
2023/03/24 13:31:30;;;;;;;11.43;1.48;;;16.30;66.00;;;;;;4934183;29;20060;-81
2023/03/24 13:33:58;;;;;;;12.93;2.08;;;16.10;66.40;;;;;;4937991;29;20027;-80
2023/03/24 13:36:41;;;;;;;10.05;1.50;;;15.90;66.30;;;;;;4936606;29;20115;-80
2023/03/24 13:39:15;;;;;;;10.57;2.00;;;15.90;68.10;;;;;;4936026;29;20028;-80
2023/03/24 13:41:49;;;;;;;11.07;2.92;;;15.80;68.00;;;;;;4937299;29;20039;-79
2023/03/24 13:44:21;;;;;;;12.35;1.83;;;15.80;68.50;;;;;;4936693;29;20107;-80
2023/03/24 13:47:13;;;;;;;10.80;1.30;;;16.00;67.20;;;;;;4933481;29;20032;-81
2023/03/24 13:49:41;;;;;;;10.45;2.00;;;15.80;65.60;;;;;;4935940;29;20032;-81
2023/03/24 13:52:25;;;;;;;7.97;1.42;;;15.50;67.40;;;;;;4937900;29;20036;-79
2023/03/24 13:54:57;;;;;;;9.48;1.38;;;15.20;69.40;;;;;;4936764;29;20039;-79
2023/03/24 13:57:23;;;;;;;9.07;1.58;;;14.90;70.60;;;;;;4937341;29;20042;-81
2023/03/24 14:00:22;;;;;;;6.80;1.77;;;14.90;70.80;;;;;;4936241;29;20052;-80
2023/03/24 14:02:58;;;;;;;5.47;1.15;;;14.90;69.80;;;;;;4928149;29;20092;-80
2023/03/24 14:05:32;;;;;;;6.07;1.38;;;14.80;68.30;;;;;;4937518;29;20040;-81
2023/03/24 14:08:04;;;;;;;7.68;1.70;;;14.70;68.90;;;;;;4936948;29;20031;-80
2023/03/24 14:10:50;;;;;;;5.97;0.90;;;14.70;69.60;;;;;;4937601;29;20447;-80
2023/03/24 14:13:16;;;;;;;6.93;1.15;;;14.80;69.30;;;;;;4937421;29;20039;-80
2023/03/24 14:15:49;;;;;;;6.03;1.00;;;14.70;68.90;;;;;;4952547;29;20032;-80
2023/03/24 14:18:24;;;;;;;6.38;1.50;;;14.70;67.70;;;;;;4936887;29;20064;-82
2023/03/24 14:20:56;;;;;;;4.70;1.05;;;14.50;67.90;;;;;;4937607;29;20046;-81
2023/03/24 14:23:51;;;;;;;2.72;0.82;;;14.30;65.20;;;;;;4937032;29;20080;-78
2023/03/24 14:26:22;;;;;;;5.22;1.00;;;14.00;64.70;;;;;;4934420;29;20460;-81
2023/03/24 14:28:50;;;;;;;3.13;0.60;;;13.80;63.70;;;;;;4937102;29;20080;-80
2023/03/24 14:31:15;;;;;;;7.57;0.65;;;13.70;64.20;;;;;;4936205;29;20056;-80
2023/03/24 14:33:53;;;;;;;4.45;0.90;;;13.70;62.80;;;;;;4952250;28;20039;-81
2023/03/24 14:36:24;;;;;;;3.40;0.70;;;13.90;64.50;;;;;;4938220;29;20091;-81
2023/03/24 14:38:50;;;;;;;5.07;1.42;;;14.30;63.50;;;;;;4934730;29;20398;-81
2023/03/24 14:41:27;;;;;;;11.40;1.55;;;14.60;63.60;;;;;;4939888;29;20455;-82
2023/03/24 14:43:56;;;;;;;2.42;0.90;;;14.60;63.30;;;;;;4939983;29;20035;-81
2023/03/24 14:46:21;;;;;;;1.85;0.70;;;14.40;62.00;;;;;;4950270;29;20035;-82
2023/03/24 14:48:55;;;;;;;1.33;0.50;;;13.70;66.60;;;;;;4940253;29;20083;-81
2023/03/24 14:51:44;;;;;;;4.18;0.70;;;13.50;68.10;;;;;;4940749;29;20115;-81
2023/03/24 14:54:31;;;;;;;2.00;0.80;;;13.30;69.10;;;;;;4941220;29;20027;-81
2023/03/24 14:56:58;;;;;;;1.95;0.70;;;13.20;69.30;;;;;;4939627;29;20106;-81
2023/03/24 14:59:34;;;;;;;4.00;0.52;;;13.10;69.10;;;;;;4940827;29;20498;-81
2023/03/24 15:02:10;;;;;;;2.00;0.77;;;13.00;69.70;;;;;;4940412;29;20031;-82
2023/03/24 15:04:38;;;;;;;1.83;0.90;;;12.90;69.80;;;;;;4932644;29;20032;-83
2023/03/24 15:07:04;;;;;;;1.48;0.65;;;13.10;69.50;;;;;;4934126;29;20417;-79
2023/03/24 15:09:30;;;;;;;1.33;0.75;;;13.20;68.80;;;;;;4939065;29;20031;-80
2023/03/24 15:11:59;;;;;;;4.68;1.05;;;13.30;67.80;;;;;;4940211;29;20099;-80
2023/03/24 15:14:25;;;;;;;1.92;0.70;;;13.50;68.00;;;;;;4939367;29;20695;-79
2023/03/24 15:16:59;;;;;;;2.42;0.70;;;13.50;66.50;;;;;;4936986;29;20080;-80
2023/03/24 15:19:28;;;;;;;3.45;0.77;;;13.70;67.10;;;;;;4938007;29;20031;-79
2023/03/24 15:22:04;;;;;;;3.20;0.80;;;13.70;66.70;;;;;;4941411;29;20035;-82
2023/03/24 15:24:35;;;;;;;3.50;0.80;;;13.60;66.50;;;;;;4939517;29;20288;-82
2023/03/24 15:27:07;;;;;;;1.70;0.70;;;13.70;66.60;;;;;;4938097;29;20443;-82
2023/03/24 15:29:40;;;;;;;1.67;0.50;;;13.80;67.10;;;;;;4938618;29;20511;-80
2023/03/24 15:32:11;;;;;;;0.95;0.43;;;13.80;66.20;;;;;;4929559;29;20059;-80
2023/03/24 15:34:45;;;;;;;4.63;1.05;;;13.90;66.90;;;;;;4938649;29;20585;-81
2023/03/24 15:37:22;;;;;;;2.53;0.60;;;13.80;66.50;;;;;;4951835;29;20398;-81
2023/03/24 15:39:50;;;;;;;5.35;0.90;;;13.80;66.40;;;;;;4938274;29;20031;-81
2023/03/24 15:42:19;;;;;;;4.68;1.00;;;13.90;66.00;;;;;;4937749;29;20055;-81
2023/03/24 15:44:45;;;;;;;5.93;1.10;;;13.90;66.40;;;;;;4953428;28;20028;-81
2023/03/24 15:47:31;;;;;;;5.95;1.17;;;14.00;66.90;;;;;;4934742;29;20095;-81
2023/03/24 15:50:02;;;;;;;6.65;1.17;;;14.10;66.70;;;;;;4937896;29;20036;-79
2023/03/24 15:52:34;;;;;;;5.57;1.05;;;14.00;66.90;;;;;;4938631;29;20043;-79
2023/03/24 15:55:22;;;;;;;8.45;1.48;;;14.00;66.60;;;;;;4938879;29;20051;-79
2023/03/24 15:57:47;;;;;;;7.68;1.17;;;14.10;67.00;;;;;;4937595;29;20405;-80
2023/03/24 16:00:22;;;;;;;6.93;1.58;;;14.20;67.10;;;;;;4939731;29;20143;-79
2023/03/24 16:02:52;;;;;;;4.38;1.65;;;14.20;66.80;;;;;;4937514;29;20047;-80
2023/03/24 16:05:22;;;;;;;8.52;1.55;;;14.00;67.60;;;;;;4937611;29;20035;-80
2023/03/24 16:07:58;;;;;;;;;;;13.80;68.30;;;;;;4938561;29;20486;-79
2023/03/24 16:10:39;;;;;;;7.80;1.83;;;13.70;68.00;;;;;;4935273;29;19907;-79
2023/03/24 16:13:16;;;;;;;7.15;1.38;;;13.70;68.60;;;;;;4939084;29;20133;-80
2023/03/24 16:16:13;;;;;;;7.32;2.03;;;13.70;68.70;;;;;;4938344;29;20506;-79
2023/03/24 16:18:43;;;;;;;6.57;1.33;;;13.60;69.00;;;;;;4938496;29;20046;-80
2023/03/24 16:21:27;;;;;;;7.55;1.42;;;13.70;68.90;;;;;;4938893;29;20024;-79
2023/03/24 16:23:55;;;;;;;3.63;0.90;;;13.70;69.20;;;;;;4936955;29;20102;-80
2023/03/24 16:26:23;;;;;;;6.57;1.42;;;13.70;69.40;;;;;;4953668;29;20636;-80
2023/03/24 16:28:49;;;;;;;8.35;1.42;;;13.70;69.40;;;;;;4952888;29;20172;-79
2023/03/24 16:31:24;;;;;;;8.20;1.90;;;13.70;69.30;;;;;;4924536;29;20067;-79
2023/03/24 16:33:51;;;;;;;6.47;1.73;;;13.70;69.30;;;;;;4925081;29;20339;-79
2023/03/24 16:36:17;;;;;;;10.43;1.67;;;13.60;69.30;;;;;;4952461;29;20060;-79
2023/03/24 16:38:47;;;;;;;11.70;1.80;;;13.50;70.30;;;;;;4950229;29;20032;-79
2023/03/24 16:41:13;;;;;;;15.25;2.03;;;13.40;71.10;;;;;;4936554;29;20517;-79
2023/03/24 16:43:43;;;;;;;12.15;1.80;;;13.50;71.30;;;;;;4936818;29;20062;-79
2023/03/24 16:46:14;;;;;;;7.68;2.45;;;13.30;71.90;;;;;;4960575;28;20024;-79
2023/03/24 16:48:41;;;;;;;12.85;3.20;;;13.30;69.50;;;;;;4937654;29;20027;-79
2023/03/24 16:51:14;;;;;;;11.02;2.97;;;13.10;71.30;;;;;;4953695;29;20478;-79
2023/03/24 16:53:41;;;;;;;9.00;2.38;;;13.00;73.50;;;;;;4938120;29;20558;-77
2023/03/24 16:56:08;;;;;;;12.85;2.80;;;12.70;71.60;;;;;;4937517;29;20040;-80
2023/03/24 16:58:34;;;;;;;7.25;2.22;;;12.50;71.50;;;;;;4953032;28;20036;-77
2023/03/24 17:01:00;;;;;;;7.75;2.47;;;12.30;72.40;;;;;;4937229;29;20027;-76
2023/03/24 17:03:28;;;;;;;9.75;3.55;;;12.40;72.40;;;;;;4937884;29;20024;-76
2023/03/24 17:05:55;;;;;;;8.63;1.83;;;12.50;72.40;;;;;;4933873;29;20028;-77
2023/03/24 17:08:21;;;;;;;2.88;1.13;;;12.40;72.30;;;;;;4951121;29;20027;-76
2023/03/24 17:10:50;;;;;;;3.45;1.08;;;12.30;72.70;;;;;;4938397;29;20015;-76
2023/03/24 17:13:21;;;;;;;3.22;1.20;;;12.30;72.60;;;;;;4938323;29;20027;-76
2023/03/24 17:15:48;;;;;;;1.63;0.82;;;12.20;72.70;;;;;;4937642;29;20106;-76
2023/03/24 17:18:14;;;;;;;5.40;1.42;;;12.00;72.10;;;;;;4937983;29;20028;-76
2023/03/24 17:20:39;;;;;;;2.33;0.90;;;12.00;72.70;;;;;;4937852;29;20023;-76
2023/03/24 17:23:08;;;;;;;1.50;0.75;;;11.90;72.80;;;;;;4938433;29;20079;-76
2023/03/24 17:25:33;;;;;;;2.35;1.60;;;11.80;72.60;;;;;;4951481;29;20070;-77
2023/03/24 17:27:59;;;;;;;1.98;1.10;;;11.90;73.30;;;;;;4953116;29;20122;-78
2023/03/24 17:30:26;;;;;;;1.73;1.25;;;12.00;72.80;;;;;;4935656;29;20106;-77
2023/03/24 17:32:53;;;;;;;3.22;1.00;;;11.90;72.00;;;;;;4927445;29;20036;-78
2023/03/24 17:35:21;;;;;;;3.63;1.02;;;11.90;72.40;;;;;;4925358;29;20024;-77
2023/03/24 17:37:47;;;;;;;4.00;0.93;;;11.90;72.30;;;;;;4927782;29;20031;-77
2023/03/24 17:40:15;;;;;;;1.45;0.93;;;11.90;72.40;;;;;;4910032;29;20024;-77
2023/03/24 17:42:42;;;;;;;1.73;1.00;;;12.00;72.40;;;;;;4925360;29;20024;-77
2023/03/24 17:45:12;;;;;;;1.67;0.68;;;12.00;72.10;;;;;;4924155;29;20036;-78
2023/03/24 17:47:38;;;;;;;1.05;0.80;;;12.10;71.90;;;;;;4924044;29;20056;-80
2023/03/24 17:50:08;;;;;;;5.25;1.00;;;11.90;71.90;;;;;;4926467;29;20032;-80
2023/03/24 17:52:36;;;;;;;1.05;0.60;;;12.00;72.10;;;;;;4922026;29;20151;-79
2023/03/24 17:55:03;;;;;;;3.35;1.00;;;11.90;72.40;;;;;;4924690;29;20404;-79
2023/03/24 17:57:30;;;;;;;1.75;0.82;;;11.80;71.80;;;;;;4923961;29;20434;-78
2023/03/24 17:59:55;;;;;;;2.55;0.90;;;11.80;72.20;;;;;;4919240;29;20024;-78
2023/03/24 18:02:21;;;;;;;3.05;1.13;;;11.80;72.20;;;;;;4925397;29;20051;-79
2023/03/24 18:04:47;;;;;;;1.83;0.93;;;11.80;71.90;;;;;;4927677;29;20054;-76
2023/03/24 18:07:13;;;;;;;2.20;1.20;;;11.80;72.20;;;;;;4927941;29;20121;-76
2023/03/24 18:09:38;;;;;;;2.70;0.82;;;11.80;72.30;;;;;;4929361;29;20027;-77
2023/03/24 18:12:04;;;;;;;2.35;1.00;;;11.80;72.40;;;;;;4921597;29;20032;-75
2023/03/24 18:14:30;;;;;;;3.35;1.00;;;11.70;72.20;;;;;;4922135;29;20024;-79
2023/03/24 18:16:56;;;;;;;2.25;1.23;;;11.80;72.10;;;;;;4905431;29;20043;-78
2023/03/24 18:19:21;;;;;;;1.65;1.10;;;11.70;72.10;;;;;;4921496;29;20031;-80
2023/03/24 18:21:47;;;;;;;4.07;1.15;;;11.70;72.10;;;;;;4905733;29;20055;-80
2023/03/24 18:24:13;;;;;;;1.80;0.80;;;11.60;72.50;;;;;;4922016;29;20116;-81
2023/03/24 18:26:38;;;;;;;2.47;1.20;;;11.50;72.70;;;;;;4920041;29;20032;-80
2023/03/24 18:29:04;;;;;;;2.85;1.58;;;11.40;72.60;;;;;;4935972;29;20035;-78
2023/03/24 18:31:31;;;;;;;4.63;1.33;;;11.40;73.00;;;;;;4932758;29;20079;-77
2023/03/24 18:33:58;;;;;;;3.67;1.65;;;11.50;72.70;;;;;;4941727;29;20082;-80
2023/03/24 18:36:27;;;;;;;3.50;1.73;;;11.50;72.10;;;;;;4941386;29;20044;-77